Seagoville's Hourly Summary for Saturday, July 7, 2018
Hour Temp
(f)
RH
(%)
Solar Rad.
(MJ/m2)
Rainfall
(in)
Wind
(mph)
7/7/2018 12:00 AM 77 79 0 0 0.67
7/7/2018 1:00 AM 77 78 0 0 2.06
7/7/2018 2:00 AM 76 81 0 0 3.43
7/7/2018 3:00 AM 75 84 0 0 2.69
7/7/2018 4:00 AM 74 88 0 0 2.82
7/7/2018 5:00 AM 73 87 0 0 2.11
7/7/2018 6:00 AM 73 88 0.03 0 2.22
7/7/2018 7:00 AM 74 83 0.45 0 4.27
7/7/2018 8:00 AM 77 74 1.09 0 4.3
7/7/2018 9:00 AM 80 65 1.71 0 3.3
7/7/2018 10:00 AM 83 58 2.02 0 3.03
7/7/2018 11:00 AM 87 52 2.6 0 3.21
7/7/2018 12:00 PM 89 48 2.45 0 3.78
7/7/2018 1:00 PM 90 44 2.27 0 4.86
7/7/2018 2:00 PM 92 38 2.82 0 5.59
7/7/2018 3:00 PM 93 33 2.61 0 7.39
7/7/2018 4:00 PM 93 32 1.85 0 7.26
7/7/2018 5:00 PM 94 32 1.76 0 6.75
7/7/2018 6:00 PM 92 35 0.64 0 8.03
7/7/2018 7:00 PM 90 41 0.47 0 7.9
7/7/2018 8:00 PM 87 48 0.05 0 5.66
7/7/2018 9:00 PM 85 52 0 0 5.1
7/7/2018 10:00 PM 83 59 0 0 4.1
7/7/2018 11:00 PM 81 62 0 0 3.3
Data Summary 83 60 22.82 0.00 4.33